createdAt,value
2022-12-18T00:00:01.465Z,0
2022-12-18T00:05:01.400Z,0
2022-12-18T00:10:01.462Z,0
2022-12-18T00:15:01.455Z,0
2022-12-18T00:20:01.537Z,0
2022-12-18T00:25:01.403Z,0
2022-12-18T00:30:01.802Z,0
2022-12-18T00:35:01.612Z,0
2022-12-18T00:40:01.568Z,0
2022-12-18T00:45:01.552Z,0
2022-12-18T00:50:01.694Z,0
2022-12-18T00:55:05.928Z,0
2022-12-18T01:00:01.452Z,0
2022-12-18T01:05:01.470Z,0
2022-12-18T01:10:01.459Z,0
2022-12-18T01:15:01.502Z,0
2022-12-18T01:20:01.472Z,0
2022-12-18T01:25:01.558Z,0
2022-12-18T01:30:01.503Z,0
2022-12-18T01:35:01.568Z,0
2022-12-18T01:40:01.645Z,0
2022-12-18T01:45:01.474Z,0
2022-12-18T01:50:01.906Z,0
2022-12-18T01:55:01.520Z,0
2022-12-18T02:00:01.682Z,0
2022-12-18T02:05:01.723Z,0
2022-12-18T02:10:01.694Z,0
2022-12-18T02:15:01.705Z,0
2022-12-18T02:20:01.548Z,0
2022-12-18T02:25:01.599Z,0
2022-12-18T02:30:01.592Z,0
2022-12-18T02:35:01.618Z,0
2022-12-18T02:40:01.549Z,0
2022-12-18T02:45:01.521Z,0
2022-12-18T02:50:01.571Z,0
2022-12-18T02:55:01.607Z,0
2022-12-18T03:00:01.546Z,0
2022-12-18T03:05:01.589Z,0
2022-12-18T03:10:01.568Z,0
2022-12-18T03:15:02.158Z,0
2022-12-18T03:20:01.705Z,0
2022-12-18T03:25:01.688Z,0
2022-12-18T03:30:01.649Z,0
2022-12-18T03:35:01.663Z,0
2022-12-18T03:40:01.681Z,0
2022-12-18T03:45:01.564Z,0
2022-12-18T03:50:01.687Z,0
2022-12-18T03:55:01.671Z,0
2022-12-18T04:00:01.647Z,0
2022-12-18T04:05:01.592Z,0
2022-12-18T04:10:01.641Z,0
2022-12-18T04:15:01.812Z,0
2022-12-18T04:20:01.748Z,0
2022-12-18T04:25:01.670Z,0
2022-12-18T04:30:02.015Z,0
2022-12-18T04:35:01.774Z,0
2022-12-18T04:40:01.814Z,0
2022-12-18T04:45:01.705Z,0
2022-12-18T04:50:01.708Z,0
2022-12-18T04:55:01.671Z,0
2022-12-18T05:00:01.643Z,0
2022-12-18T05:05:01.758Z,0
2022-12-18T05:10:01.687Z,0
2022-12-18T05:15:01.655Z,0
2022-12-18T05:20:01.707Z,0
2022-12-18T05:25:01.676Z,0
2022-12-18T05:30:01.663Z,0
2022-12-18T05:35:01.680Z,0
2022-12-18T05:40:01.702Z,0
2022-12-18T05:45:01.924Z,0
2022-12-18T05:50:01.880Z,0
2022-12-18T05:55:01.973Z,0
2022-12-18T06:00:01.869Z,0
2022-12-18T06:05:01.751Z,0
2022-12-18T06:10:01.686Z,0
2022-12-18T06:15:01.733Z,0
2022-12-18T06:20:01.764Z,0
2022-12-18T06:25:02.003Z,0
2022-12-18T06:30:01.699Z,0
2022-12-18T06:35:01.723Z,0
2022-12-18T06:40:01.811Z,0
2022-12-18T06:45:01.774Z,0
2022-12-18T06:50:01.808Z,0
2022-12-18T06:55:01.773Z,0
2022-12-18T07:00:01.728Z,0
2022-12-18T07:05:04.875Z,0
2022-12-18T07:10:01.908Z,0
2022-12-18T07:15:01.973Z,0
2022-12-18T07:20:01.940Z,0
2022-12-18T07:25:01.930Z,0
2022-12-18T07:30:01.795Z,0
2022-12-18T07:35:01.755Z,0
2022-12-18T07:40:01.767Z,0.26665608465608465
2022-12-18T07:45:02.244Z,0.3478730158730159
2022-12-18T07:50:01.819Z,0.38825396825396824
2022-12-18T07:55:01.834Z,0.5978941798941799
2022-12-18T08:00:01.842Z,1.1085291005291007
2022-12-18T08:05:01.798Z,1.506338624338624
2022-12-18T08:10:01.803Z,1.7979788359788358
2022-12-18T08:15:01.974Z,2.2001164021164024
2022-12-18T08:20:01.982Z,2.775164021164021
2022-12-18T08:25:01.873Z,3.9629417989417983
2022-12-18T08:30:01.834Z,5.022973544973545
2022-12-18T08:35:01.923Z,6.251460317460318
2022-12-18T08:40:01.974Z,7.297513227513227
2022-12-18T08:45:02.297Z,8.662613756613755
2022-12-18T08:50:02.060Z,8.611460317460317
2022-12-18T08:55:02.010Z,10.548899470899471
2022-12-18T09:00:02.074Z,10.543925925925926
2022-12-18T09:05:01.933Z,11.069153439153439
2022-12-18T09:10:02.032Z,12.871915343915344
2022-12-18T09:15:01.947Z,14.869968253968255
2022-12-18T09:20:01.996Z,17.21161904761905
2022-12-18T09:25:01.926Z,22.469396825396828
2022-12-18T09:30:01.930Z,26.165989417989422
2022-12-18T09:35:01.924Z,25.12902645502646
2022-12-18T09:40:01.907Z,22.330624338624343
2022-12-18T09:45:03.180Z,12.307555555555556
2022-12-18T09:50:01.982Z,7.739492063492063
2022-12-18T09:55:01.982Z,6.553746031746033
2022-12-18T10:00:01.991Z,6.599788359788361
2022-12-18T10:05:01.911Z,6.379756613756614
2022-12-18T10:10:01.945Z,6.265767195767196
2022-12-18T10:15:01.912Z,6.617629629629629
2022-12-18T10:20:02.009Z,9.27826455026455
2022-12-18T10:25:02.005Z,9.5229417989418
2022-12-18T10:30:02.004Z,9.223396825396826
2022-12-18T10:35:01.936Z,9.1985291005291
2022-12-18T10:40:01.948Z,9.171746031746032
2022-12-18T10:45:01.947Z,8.096740740740742
2022-12-18T10:50:02.234Z,5.471439153439154
2022-12-18T10:55:02.111Z,9.59762962962963
2022-12-18T11:00:02.155Z,19.420719576719577
2022-12-18T11:05:02.107Z,21.047460317460317
2022-12-18T11:10:02.178Z,17.307322751322754
2022-12-18T11:15:02.109Z,18.489386243386242
2022-12-18T11:20:02.156Z,35.04908994708995
2022-12-18T11:25:31.164Z,29.6726455026455
2022-12-18T11:30:01.987Z,22.839714285714287
2022-12-18T11:35:02.017Z,18.927386243386245
2022-12-18T11:40:01.987Z,25.72366137566138
2022-12-18T11:45:02.008Z,29.639640211640213
2022-12-18T11:50:02.118Z,31.029291005291004
2022-12-18T11:55:02.040Z,30.434571428571427
2022-12-18T12:00:02.067Z,25.860888888888894
2022-12-18T12:05:01.996Z,22.412084656084655
2022-12-18T12:10:02.108Z,27.247089947089947
2022-12-18T12:15:02.037Z,22.243386243386244
2022-12-18T12:20:02.028Z,14.26931216931217
2022-12-18T12:25:02.033Z,15.72962962962963
2022-12-18T12:30:02.085Z,22.284126984126985
2022-12-18T12:35:06.130Z,14.699841269841269
2022-12-18T12:40:07.423Z,15.00131216931217
2022-12-18T12:45:02.257Z,18.92956613756614
2022-12-18T12:50:02.109Z,13.774687830687832
2022-12-18T12:55:02.060Z,10.212613756613756
2022-12-18T13:00:02.235Z,6.6515132275132265
2022-12-18T13:05:02.231Z,4.73984126984127
2022-12-18T13:10:02.520Z,4.018708994708995
2022-12-18T13:15:02.219Z,3.3495343915343914
2022-12-18T13:20:02.176Z,2.9036190476190478
2022-12-18T13:25:02.199Z,2.681862433862434
2022-12-18T13:30:02.085Z,2.961037037037037
2022-12-18T13:35:02.180Z,4.359608465608466
2022-12-18T13:40:02.094Z,5.010613756613756
2022-12-18T13:45:02.118Z,3.0965291005291005
2022-12-18T13:50:02.113Z,1.9162116402116403
2022-12-18T13:55:02.146Z,1.7571746031746032
2022-12-18T14:00:02.108Z,1.7271746031746031
2022-12-18T14:05:02.111Z,1.7646772486772488
2022-12-18T14:10:12.552Z,1.795142857142857
2022-12-18T14:15:02.160Z,1.6509841269841268
2022-12-18T14:20:02.125Z,1.30794708994709
2022-12-18T14:25:02.143Z,0.7587619047619047
2022-12-18T14:30:02.145Z,0.15467724867724866
2022-12-18T14:35:02.114Z,0
2022-12-18T14:40:08.930Z,0
2022-12-18T14:45:13.710Z,0
2022-12-18T14:50:02.426Z,0
2022-12-18T14:55:02.287Z,0
2022-12-18T15:00:02.292Z,0
2022-12-18T15:05:02.433Z,0
2022-12-18T15:10:02.349Z,0
2022-12-18T15:15:02.200Z,0
2022-12-18T15:20:02.190Z,0
2022-12-18T15:25:02.248Z,0
2022-12-18T15:30:02.287Z,0
2022-12-18T15:35:02.275Z,0
2022-12-18T15:40:02.394Z,0
2022-12-18T15:45:02.190Z,0
2022-12-18T15:50:02.365Z,0
2022-12-18T15:55:02.170Z,0
2022-12-18T16:00:02.410Z,0
2022-12-18T16:05:02.225Z,0
2022-12-18T16:10:02.223Z,0
2022-12-18T16:15:02.293Z,0
2022-12-18T16:20:02.425Z,0
2022-12-18T16:25:02.443Z,0
2022-12-18T16:30:02.364Z,0
2022-12-18T16:35:02.390Z,0
2022-12-18T16:40:02.394Z,0
2022-12-18T16:45:02.258Z,0
2022-12-18T16:50:02.363Z,0
2022-12-18T16:55:02.356Z,0
2022-12-18T17:00:05.412Z,0
2022-12-18T17:05:02.294Z,0
2022-12-18T17:10:02.354Z,0
2022-12-18T17:15:02.297Z,0
2022-12-18T17:20:02.339Z,0
2022-12-18T17:25:02.368Z,0
2022-12-18T17:30:02.285Z,0
2022-12-18T17:35:06.898Z,0
2022-12-18T17:40:02.291Z,0
2022-12-18T17:45:02.876Z,0
2022-12-18T17:50:02.476Z,0
2022-12-18T17:55:02.536Z,0
2022-12-18T18:00:02.519Z,0
2022-12-18T18:05:02.423Z,0
2022-12-18T18:10:02.395Z,0
2022-12-18T18:15:02.418Z,0
2022-12-18T18:20:02.370Z,0
2022-12-18T18:25:02.411Z,0
2022-12-18T18:30:02.364Z,0
2022-12-18T18:35:02.385Z,0
2022-12-18T18:40:02.395Z,0
2022-12-18T18:45:02.470Z,0
2022-12-18T18:50:02.385Z,0
2022-12-18T18:55:13.184Z,0
2022-12-18T19:00:02.381Z,0
2022-12-18T19:05:02.403Z,0
2022-12-18T19:10:03.078Z,0
2022-12-18T19:15:02.491Z,0
2022-12-18T19:20:02.713Z,0
2022-12-18T19:25:02.621Z,0
2022-12-18T19:30:02.708Z,0
2022-12-18T19:35:02.488Z,0
2022-12-18T19:40:02.501Z,0
2022-12-18T19:45:03.696Z,0
2022-12-18T19:50:02.579Z,0
2022-12-18T19:55:02.521Z,0
2022-12-18T20:00:03.176Z,0
2022-12-18T20:05:03.746Z,0
2022-12-18T20:10:08.825Z,0
2022-12-18T20:15:03.525Z,0
2022-12-18T20:20:14.346Z,0
2022-12-18T20:25:03.433Z,0
2022-12-18T20:30:03.615Z,0
2022-12-18T20:35:07.702Z,0
2022-12-18T20:40:03.209Z,0
2022-12-18T20:45:02.637Z,0
2022-12-18T20:50:02.478Z,0
2022-12-18T20:55:02.514Z,0
2022-12-18T21:00:02.502Z,0
2022-12-18T21:05:02.572Z,0
2022-12-18T21:10:02.473Z,0
2022-12-18T21:15:02.728Z,0
2022-12-18T21:20:02.519Z,0
2022-12-18T21:25:02.543Z,0
2022-12-18T21:30:02.530Z,0
2022-12-18T21:35:02.507Z,0
2022-12-18T21:40:02.547Z,0
2022-12-18T21:45:02.719Z,0
2022-12-18T21:50:02.773Z,0
2022-12-18T21:55:08.812Z,0
2022-12-18T22:00:02.671Z,0
2022-12-18T22:05:02.687Z,0
2022-12-18T22:10:02.675Z,0
2022-12-18T22:15:02.725Z,0
2022-12-18T22:20:02.736Z,0
2022-12-18T22:25:02.656Z,0
2022-12-18T22:30:02.639Z,0
2022-12-18T22:35:07.137Z,0
2022-12-18T22:40:02.995Z,0
2022-12-18T22:45:02.665Z,0
2022-12-18T22:50:02.598Z,0
2022-12-18T22:55:02.662Z,0
2022-12-18T23:00:02.647Z,0
2022-12-18T23:05:02.577Z,0
2022-12-18T23:10:02.660Z,0
2022-12-18T23:15:02.590Z,0
2022-12-18T23:20:02.620Z,0
2022-12-18T23:25:02.674Z,0
2022-12-18T23:30:02.700Z,0
2022-12-18T23:35:02.644Z,0
2022-12-18T23:40:02.647Z,0
2022-12-18T23:45:04.512Z,0
2022-12-18T23:50:02.639Z,0
2022-12-18T23:55:02.616Z,0
